Time;durP1;ratioP1;P1;durP2;ratioP2;P2;SDS_P1;SDS_P2;PMS_P1;PMS_P2;Temp;Humidity;BMP_temperature;BMP_pressure;BME280_temperature;BME280_humidity;BME280_pressure;Samples;Min_cycle;Max_cycle;Signal;HPM_P1;HPM_P2
2022/01/30 00:00:41;;;;;;;0.30;0.30;;;;;;;2.21;100.00;94018.97;2090364;28;20029;-83
2022/01/30 00:01:43;;;;;;;1.15;0.30;;;;;;;1.98;100.00;94005.59;2098565;28;20377;-83
2022/01/30 00:02:44;;;;;;;0.30;0.30;;;;;;;1.96;100.00;94010.44;2113059;28;20138;-83
2022/01/30 00:03:45;;;;;;;0.65;0.40;;;;;;;1.93;100.00;94011.13;2098363;28;20112;-83
2022/01/30 00:04:46;;;;;;;0.30;0.30;;;;;;;1.98;100.00;94007.47;2115311;28;20162;-84
2022/01/30 00:05:47;;;;;;;0.30;0.30;;;;;;;2.13;100.00;94019.13;2123752;27;20356;-84
2022/01/30 00:06:48;;;;;;;0.30;0.30;;;;;;;2.39;100.00;94022.03;2106572;28;20028;-83
2022/01/30 00:07:49;;;;;;;0.32;0.32;;;;;;;2.22;100.00;94006.53;2098243;28;20438;-84
2022/01/30 00:08:50;;;;;;;0.30;0.30;;;;;;;2.29;100.00;94019.91;2098644;28;20020;-84
2022/01/30 00:09:53;;;;;;;0.40;0.40;;;;;;;2.41;100.00;94017.16;2099451;28;20028;-84
2022/01/30 00:11:00;;;;;;;0.30;0.30;;;;;;;2.49;100.00;94018.09;2097969;28;20135;-83
2022/01/30 00:12:04;;;;;;;0.20;0.20;;;;;;;2.37;100.00;94003.16;2091858;28;20499;-84
2022/01/30 00:13:08;;;;;;;0.30;0.30;;;;;;;2.25;100.00;93998.72;2107272;28;20077;-84
2022/01/30 00:14:13;;;;;;;0.30;0.30;;;;;;;2.31;100.00;93998.44;2098327;28;20074;-84
2022/01/30 00:15:16;;;;;;;0.30;0.30;;;;;;;2.10;100.00;93996.81;2099432;28;20021;-84
2022/01/30 00:16:19;;;;;;;0.30;0.30;;;;;;;2.03;100.00;93994.03;2098254;28;20440;-83
2022/01/30 00:17:25;;;;;;;0.45;0.30;;;;;;;2.13;100.00;94005.94;2099012;28;20365;-84
2022/01/30 00:19:17;;;;;;;0.30;0.30;;;;;;;2.27;100.00;93998.38;2098109;28;20529;-84
2022/01/30 00:19:59;;;;;;;0.40;0.30;;;;;;;2.08;100.00;94000.91;2105016;27;20511;-83
2022/01/30 00:21:12;;;;;;;0.32;0.30;;;;;;;2.03;100.00;93998.53;2099537;28;20039;-84
2022/01/30 00:23:31;;;;;;;0.30;0.30;;;;;;;2.09;100.00;93997.16;2100687;28;20020;-83
2022/01/30 00:24:44;;;;;;;0.20;0.20;;;;;;;2.27;100.00;93996.47;2090057;28;20028;-83
2022/01/30 00:25:51;;;;;;;0.52;0.40;;;;;;;2.28;100.00;93997.25;2084962;28;20086;-84
2022/01/30 00:26:52;;;;;;;0.30;0.30;;;;;;;2.31;100.00;93993.16;2091625;28;20370;-83
2022/01/30 00:28:04;;;;;;;0.45;0.30;;;;;;;2.30;100.00;93999.56;2090039;28;20036;-84
2022/01/30 00:29:05;;;;;;;0.30;0.30;;;;;;;2.40;100.00;93993.75;2101227;28;20048;-84
2022/01/30 00:30:09;;;;;;;0.30;0.30;;;;;;;2.35;100.00;93991.38;2098433;28;20032;-83
2022/01/30 00:31:13;;;;;;;0.30;0.30;;;;;;;2.41;100.00;93987.38;2090376;28;20501;-82
2022/01/30 00:32:14;;;;;;;0.50;0.30;;;;;;;2.30;100.00;93995.06;2090762;28;20457;-84
2022/01/30 00:33:15;;;;;;;0.40;0.30;;;;;;;2.45;100.00;94001.41;2098338;28;20115;-84
2022/01/30 00:34:16;;;;;;;0.55;0.50;;;;;;;2.54;100.00;93994.09;2098174;28;20028;-83
2022/01/30 00:35:17;;;;;;;1.48;0.50;;;;;;;2.57;100.00;93998.69;2098110;28;20024;-83
2022/01/30 00:36:18;;;;;;;0.30;0.30;;;;;;;2.47;100.00;93999.22;2098335;28;20052;-84
2022/01/30 00:37:19;;;;;;;0.95;0.35;;;;;;;2.50;100.00;94006.44;2098093;28;20025;-83
2022/01/30 00:38:22;;;;;;;0.30;0.30;;;;;;;2.40;100.00;93999.81;2098187;28;20524;-83
2022/01/30 00:39:23;;;;;;;0.40;0.40;;;;;;;2.23;100.00;94003.53;2098259;28;20047;-83
2022/01/30 00:40:24;;;;;;;1.55;0.50;;;;;;;2.13;100.00;93996.16;2089888;28;20021;-83
2022/01/30 00:41:26;;;;;;;0.40;0.40;;;;;;;2.32;100.00;93998.09;2106666;28;20031;-84
2022/01/30 00:42:27;;;;;;;0.30;0.30;;;;;;;2.25;100.00;93998.72;2098060;28;20497;-82
2022/01/30 00:43:28;;;;;;;0.40;0.40;;;;;;;2.34;100.00;93989.88;2098070;28;20031;-83
2022/01/30 00:44:29;;;;;;;0.50;0.40;;;;;;;2.50;100.00;93988.75;2106351;28;20106;-84
2022/01/30 00:45:30;;;;;;;0.50;0.50;;;;;;;2.40;100.00;93991.13;2106353;28;20024;-84
2022/01/30 00:46:31;;;;;;;0.50;0.50;;;;;;;2.43;100.00;93982.53;2110645;28;20073;-83
2022/01/30 00:47:32;;;;;;;0.50;0.50;;;;;;;2.40;100.00;93991.88;2106304;28;20020;-84
2022/01/30 00:48:33;;;;;;;2.50;0.50;;;;;;;2.41;100.00;93985.50;2106495;28;20043;-83
2022/01/30 00:49:34;;;;;;;0.60;0.50;;;;;;;2.50;100.00;93982.69;2098156;28;20070;-83
2022/01/30 00:50:35;;;;;;;0.50;0.50;;;;;;;2.42;100.00;93981.78;2096301;28;20020;-83
2022/01/30 00:51:37;;;;;;;0.30;0.30;;;;;;;2.23;100.00;93981.69;2098127;28;20391;-83
2022/01/30 00:52:38;;;;;;;0.63;0.63;;;;;;;2.25;100.00;93985.53;2099330;28;20400;-83
2022/01/30 00:53:39;;;;;;;1.02;0.45;;;;;;;2.29;100.00;93988.25;2097958;28;20020;-84
2022/01/30 00:54:41;;;;;;;1.23;0.55;;;;;;;2.42;100.00;93992.31;2097989;28;20438;-83
2022/01/30 00:55:42;;;;;;;0.55;0.55;;;;;;;2.41;100.00;93987.38;2106372;28;20023;-84
2022/01/30 00:56:43;;;;;;;0.40;0.40;;;;;;;2.47;100.00;93988.66;2106425;28;20050;-84
2022/01/30 00:57:44;;;;;;;0.52;0.52;;;;;;;2.46;100.00;93993.19;2108708;28;20121;-84
2022/01/30 00:58:45;;;;;;;0.50;0.50;;;;;;;2.49;100.00;93981.16;2097810;28;20056;-83
2022/01/30 00:59:45;;;;;;;0.40;0.40;;;;;;;2.37;100.00;93973.34;2089935;28;20029;-83
2022/01/30 01:00:46;;;;;;;0.50;0.50;;;;;;;2.42;100.00;93973.09;2089731;28;20032;-83
2022/01/30 01:01:47;;;;;;;0.70;0.50;;;;;;;2.22;100.00;93967.72;2089613;28;20017;-83
2022/01/30 01:02:48;;;;;;;0.50;0.50;;;;;;;2.10;100.00;93964.41;2089604;28;20075;-83
2022/01/30 01:03:49;;;;;;;0.43;0.43;;;;;;;2.17;100.00;93964.59;2081519;28;20022;-84
2022/01/30 01:04:50;;;;;;;0.50;0.50;;;;;;;2.34;100.00;93963.47;2089590;28;20363;-84
2022/01/30 01:05:52;;;;;;;0.40;0.40;;;;;;;2.56;100.00;93964.72;2106052;28;20115;-83
2022/01/30 01:06:53;;;;;;;0.60;0.60;;;;;;;2.28;100.00;93957.69;2097573;28;20028;-84
2022/01/30 01:07:56;;;;;;;0.55;0.55;;;;;;;2.17;100.00;93956.69;2089520;28;20112;-83
2022/01/30 01:09:01;;;;;;;0.77;0.60;;;;;;;2.00;100.00;93955.16;2098244;28;20126;-83
2022/01/30 01:10:11;;;;;;;1.58;0.50;;;;;;;2.11;100.00;93952.75;2098917;28;20032;-83
2022/01/30 01:12:43;;;;;;;0.60;0.60;;;;;;;2.00;100.00;93947.25;2097973;28;20028;-83
2022/01/30 01:14:07;;;;;;;1.65;0.50;;;;;;;1.80;100.00;93935.84;2106326;28;20066;-84
2022/01/30 01:24:40;;;;;;;0.40;0.40;;;;;;;1.91;100.00;93960.59;2056401;28;20125;-84
2022/01/30 01:25:42;;;;;;;2.47;0.70;;;;;;;1.78;100.00;93961.78;2068947;28;20029;-84
2022/01/30 01:26:43;;;;;;;0.82;0.80;;;;;;;1.87;100.00;93958.97;2081692;28;20029;-83
2022/01/30 01:27:44;;;;;;;0.60;0.60;;;;;;;2.00;100.00;93960.44;2093199;28;20043;-84
2022/01/30 01:28:46;;;;;;;1.70;0.60;;;;;;;2.12;100.00;93965.63;2097808;28;20052;-83
2022/01/30 01:29:46;;;;;;;0.60;0.60;;;;;;;2.14;100.00;93973.19;2091672;28;20571;-83
2022/01/30 01:30:47;;;;;;;0.77;0.65;;;;;;;2.23;100.00;93979.03;2081304;28;20056;-84
2022/01/30 01:31:48;;;;;;;1.25;0.70;;;;;;;2.19;100.00;93975.56;2097583;28;20069;-83
2022/01/30 01:32:49;;;;;;;1.08;0.63;;;;;;;2.08;100.00;93972.69;2097582;28;20453;-84
2022/01/30 01:34:21;;;;;;;0.63;0.60;;;;;;;1.94;100.00;93964.44;2089584;28;20478;-84
2022/01/30 01:35:22;;;;;;;0.50;0.50;;;;;;;1.87;100.00;93967.66;2093772;28;20037;-83
2022/01/30 01:36:24;;;;;;;1.20;0.43;;;;;;;1.90;100.00;93977.53;2081142;28;20021;-83
2022/01/30 01:37:25;;;;;;;0.95;0.60;;;;;;;2.03;100.00;93966.91;2089642;28;20029;-84
2022/01/30 01:38:26;;;;;;;0.57;0.57;;;;;;;1.85;100.00;93969.88;2105953;28;20023;-83
2022/01/30 01:39:27;;;;;;;0.70;0.60;;;;;;;1.99;100.00;93969.44;2097585;28;20052;-84
2022/01/30 01:40:28;;;;;;;1.05;0.70;;;;;;;2.12;100.00;93962.97;2097562;28;20389;-83
2022/01/30 01:41:31;;;;;;;0.60;0.60;;;;;;;1.95;100.00;93961.44;2097479;28;20020;-84
2022/01/30 01:42:35;;;;;;;0.45;0.43;;;;;;;1.90;100.00;93961.69;2086236;28;20378;-84
2022/01/30 01:43:37;;;;;;;0.73;0.73;;;;;;;2.22;100.00;93959.81;2090180;28;20033;-84
2022/01/30 01:44:43;;;;;;;0.70;0.70;;;;;;;2.04;100.00;93960.50;2089541;28;20040;-84
2022/01/30 01:45:46;;;;;;;1.00;0.60;;;;;;;1.94;100.00;93959.91;2090696;28;20112;-84
2022/01/30 01:46:48;;;;;;;0.60;0.60;;;;;;;1.83;100.00;93956.25;2090115;28;20588;-83
2022/01/30 01:47:50;;;;;;;0.50;0.50;;;;;;;1.80;100.00;93953.50;2089140;28;20039;-83
2022/01/30 01:48:53;;;;;;;0.70;0.70;;;;;;;1.79;100.00;93954.63;2081220;28;20447;-83
2022/01/30 01:49:53;;;;;;;0.50;0.50;;;;;;;1.73;100.00;93957.50;2089520;28;20021;-84
2022/01/30 01:51:04;;;;;;;0.95;0.55;;;;;;;1.80;100.00;93945.59;2089196;28;20048;-83
2022/01/30 01:52:23;;;;;;;0.50;0.50;;;;;;;1.94;100.00;93940.69;2083730;28;20200;-83
2022/01/30 01:53:25;;;;;;;0.68;0.65;;;;;;;1.89;100.00;93947.00;2083417;28;20023;-82
2022/01/30 01:54:26;;;;;;;0.52;0.52;;;;;;;1.82;100.00;93941.53;2089470;28;20068;-83
2022/01/30 01:55:27;;;;;;;0.80;0.57;;;;;;;1.68;100.00;93939.31;2089239;28;20028;-83
2022/01/30 01:56:28;;;;;;;0.70;0.40;;;;;;;1.74;100.00;93942.47;2081004;28;20021;-84
2022/01/30 01:57:29;;;;;;;0.73;0.73;;;;;;;1.85;100.00;93940.09;2084773;28;20016;-82
2022/01/30 01:58:30;;;;;;;0.98;0.70;;;;;;;1.99;100.00;93941.22;2080899;28;20025;-83
2022/01/30 01:59:31;;;;;;;0.77;0.50;;;;;;;1.97;100.00;93940.00;2089573;28;20087;-82
2022/01/30 02:00:33;;;;;;;0.88;0.60;;;;;;;2.04;100.00;93936.78;2105909;28;20070;-82
2022/01/30 02:01:34;;;;;;;0.88;0.60;;;;;;;1.91;100.00;93936.09;2097324;28;20040;-83
2022/01/30 02:02:35;;;;;;;0.40;0.40;;;;;;;1.70;100.00;93933.69;2080897;28;20493;-83
2022/01/30 02:03:40;;;;;;;0.50;0.50;;;;;;;2.00;100.00;93942.72;2089250;28;20653;-83
2022/01/30 02:04:42;;;;;;;0.40;0.40;;;;;;;1.91;100.00;93939.50;2098013;28;20098;-83
2022/01/30 02:05:51;;;;;;;0.50;0.50;;;;;;;1.88;100.00;93936.78;2089396;28;20025;-83
2022/01/30 02:07:12;;;;;;;0.40;0.40;;;;;;;1.73;100.00;93936.44;2083068;28;20022;-83
2022/01/30 02:08:34;;;;;;;1.65;0.60;;;;;;;1.73;100.00;93940.94;2101627;28;20081;-83
2022/01/30 02:11:54;;;;;;;0.40;0.40;;;;;;;1.47;100.00;93928.25;2138655;27;19918;-83
2022/01/30 02:13:08;;;;;;;1.10;0.40;;;;;;;1.57;100.00;93925.09;2122039;27;20072;-84
2022/01/30 02:15:44;;;;;;;1.65;0.50;;;;;;;1.99;100.00;93928.03;2121625;27;20019;-82
2022/01/30 02:24:57;;;;;;;0.50;0.50;;;;;;;1.55;100.00;93929.19;2132576;27;20019;-83
2022/01/30 02:26:00;;;;;;;1.17;0.50;;;;;;;1.59;100.00;93924.78;2124215;27;20101;-83
2022/01/30 02:27:02;;;;;;;1.02;0.40;;;;;;;1.75;100.00;93921.03;2113848;27;20026;-84
2022/01/30 02:28:09;;;;;;;0.30;0.30;;;;;;;1.64;100.00;93924.53;2113206;28;20649;-83
2022/01/30 02:29:11;;;;;;;0.40;0.40;;;;;;;1.63;100.00;93925.63;2106345;28;20028;-84
2022/01/30 02:30:18;;;;;;;0.40;0.40;;;;;;;1.72;100.00;93926.25;2104886;28;20016;-83
2022/01/30 02:31:21;;;;;;;0.45;0.32;;;;;;;1.60;100.00;93923.69;2106116;28;20047;-83
2022/01/30 02:32:22;;;;;;;0.73;0.40;;;;;;;1.49;100.00;93921.56;2113401;27;20016;-83
2022/01/30 02:33:23;;;;;;;0.65;0.35;;;;;;;1.48;100.00;93921.88;2113167;28;20035;-83
2022/01/30 02:34:31;;;;;;;0.60;0.40;;;;;;;1.47;100.00;93920.34;2113248;28;20410;-83
2022/01/30 02:35:32;;;;;;;0.50;0.50;;;;;;;1.46;100.00;93919.59;2106578;28;20465;-84
2022/01/30 02:36:48;;;;;;;0.93;0.57;;;;;;;1.47;100.00;93922.97;2104568;28;20036;-83
2022/01/30 02:37:52;;;;;;;0.50;0.50;;;;;;;1.45;100.00;93927.84;2108758;28;20032;-83
2022/01/30 02:38:57;;;;;;;0.43;0.43;;;;;;;1.48;100.00;93932.41;2105496;28;20020;-84
2022/01/30 02:39:58;;;;;;;1.10;0.40;;;;;;;1.60;100.00;93928.94;2109150;27;20418;-83
2022/01/30 02:40:59;;;;;;;0.80;0.50;;;;;;;1.56;100.00;93928.84;2121357;27;20038;-83
2022/01/30 02:42:01;;;;;;;0.60;0.60;;;;;;;1.55;100.00;93922.06;2112985;27;20027;-84
2022/01/30 02:43:03;;;;;;;0.40;0.40;;;;;;;1.60;100.00;93923.69;2121656;27;20019;-82
2022/01/30 02:44:30;;;;;;;0.52;0.40;;;;;;;1.89;100.00;93927.75;2108798;27;20028;-84
2022/01/30 02:45:43;;;;;;;0.65;0.52;;;;;;;1.87;100.00;93924.72;2121831;27;20103;-83
2022/01/30 02:46:47;;;;;;;0.35;0.35;;;;;;;1.81;100.00;93911.03;2123769;27;20047;-83
2022/01/30 02:47:59;;;;;;;0.47;0.47;;;;;;;1.72;100.00;93908.56;2122068;27;20472;-83
2022/01/30 02:49:12;;;;;;;0.30;0.30;;;;;;;1.67;100.00;93913.31;2110121;28;20024;-84
2022/01/30 02:50:21;;;;;;;2.38;0.60;;;;;;;1.58;100.00;93904.78;2106184;28;20138;-83
2022/01/30 02:51:23;;;;;;;0.63;0.50;;;;;;;1.58;100.00;93900.31;2105617;28;20028;-84
2022/01/30 02:52:24;;;;;;;1.15;0.50;;;;;;;1.57;100.00;93900.63;2096482;28;20032;-83
2022/01/30 02:53:29;;;;;;;1.38;0.40;;;;;;;1.60;100.00;93902.59;2096047;28;20385;-84
2022/01/30 02:54:31;;;;;;;0.47;0.47;;;;;;;1.58;100.00;93913.47;2097474;28;20032;-83
2022/01/30 02:55:32;;;;;;;0.50;0.50;;;;;;;1.67;100.00;93915.97;2104739;27;20024;-84
2022/01/30 02:56:35;;;;;;;0.80;0.60;;;;;;;1.66;100.00;93915.16;2108281;28;20092;-83
2022/01/30 02:57:36;;;;;;;1.13;0.80;;;;;;;1.62;100.00;93914.31;2105607;27;20030;-84
2022/01/30 02:58:37;;;;;;;2.75;0.50;;;;;;;1.61;100.00;93912.78;2121246;27;20050;-83
2022/01/30 02:59:39;;;;;;;1.30;0.52;;;;;;;1.68;100.00;93909.56;2112748;28;20020;-83
2022/01/30 03:00:40;;;;;;;0.30;0.30;;;;;;;1.73;100.00;93909.31;2112913;27;20075;-83
2022/01/30 03:01:41;;;;;;;0.57;0.50;;;;;;;1.70;100.00;93908.13;2116693;27;20015;-83
2022/01/30 03:02:42;;;;;;;0.40;0.40;;;;;;;1.70;100.00;93917.91;2112685;27;20028;-84
2022/01/30 03:03:43;;;;;;;0.60;0.60;;;;;;;1.73;100.00;93911.94;2121197;28;20468;-83
2022/01/30 03:04:44;;;;;;;0.40;0.40;;;;;;;1.69;100.00;93914.50;2104105;28;20050;-83
2022/01/30 03:05:50;;;;;;;0.40;0.40;;;;;;;2.02;100.00;93910.78;2104333;28;20398;-83
2022/01/30 03:06:51;;;;;;;0.50;0.50;;;;;;;1.93;100.00;93916.22;2097348;28;20028;-83
2022/01/30 03:07:52;;;;;;;0.50;0.50;;;;;;;1.78;100.00;93914.34;2104303;28;20047;-83
2022/01/30 03:08:53;;;;;;;0.60;0.60;;;;;;;2.13;100.00;93911.00;2104306;28;20420;-83
2022/01/30 03:09:54;;;;;;;0.50;0.50;;;;;;;2.09;100.00;93912.78;2103988;28;20031;-83
2022/01/30 03:10:55;;;;;;;0.43;0.38;;;;;;;1.99;100.00;93917.47;2104295;28;20139;-83
2022/01/30 03:11:56;;;;;;;0.57;0.40;;;;;;;1.97;100.00;93909.13;2112734;28;20110;-83
2022/01/30 03:12:57;;;;;;;0.80;0.50;;;;;;;2.15;100.00;93912.19;2104187;28;20028;-83
2022/01/30 03:13:58;;;;;;;0.73;0.73;;;;;;;1.97;100.00;93906.50;2099690;28;20032;-83
2022/01/30 03:14:59;;;;;;;0.52;0.50;;;;;;;1.91;100.00;93909.75;2108531;27;20023;-84
2022/01/30 03:16:03;;;;;;;0.50;0.50;;;;;;;1.75;100.00;93905.22;2112616;28;20111;-83
2022/01/30 03:17:04;;;;;;;1.35;0.55;;;;;;;1.79;100.00;93910.59;2113446;27;20024;-83
2022/01/30 03:18:05;;;;;;;1.27;0.60;;;;;;;1.69;100.00;93898.69;2121192;28;20019;-83
2022/01/30 03:19:06;;;;;;;0.45;0.45;;;;;;;1.62;100.00;93909.03;2112374;28;20036;-83
2022/01/30 03:20:08;;;;;;;0.60;0.60;;;;;;;1.83;100.00;93910.69;2112652;27;20115;-83
2022/01/30 03:21:10;;;;;;;0.50;0.50;;;;;;;1.86;100.00;93912.63;2112856;28;20032;-82
2022/01/30 03:22:11;;;;;;;0.43;0.43;;;;;;;1.77;100.00;93904.91;2098565;28;20126;-83
2022/01/30 03:23:12;;;;;;;0.88;0.60;;;;;;;1.64;100.00;93900.81;2107152;28;20047;-83
2022/01/30 03:24:13;;;;;;;0.50;0.50;;;;;;;1.69;100.00;93901.31;2098558;28;20078;-83
2022/01/30 03:25:14;;;;;;;0.52;0.52;;;;;;;1.65;100.00;93894.44;2106938;28;20029;-83
2022/01/30 03:26:17;;;;;;;0.50;0.50;;;;;;;2.06;100.00;93902.91;2106849;28;20043;-83
2022/01/30 03:27:18;;;;;;;0.75;0.40;;;;;;;2.29;100.00;93900.44;2105003;28;20020;-83
2022/01/30 03:28:19;;;;;;;0.40;0.40;;;;;;;2.20;100.00;93900.63;2098629;28;20025;-83
2022/01/30 03:29:20;;;;;;;0.45;0.30;;;;;;;2.06;100.00;93898.41;2090150;28;20427;-83
2022/01/30 03:30:30;;;;;;;0.93;0.50;;;;;;;2.07;100.00;93901.84;2090031;28;20497;-83
2022/01/30 03:31:31;;;;;;;1.55;0.50;;;;;;;2.08;100.00;93904.13;2084287;28;20112;-83
2022/01/30 03:32:32;;;;;;;1.67;0.63;;;;;;;1.92;100.00;93898.09;2090152;28;20025;-83
2022/01/30 03:33:34;;;;;;;0.68;0.50;;;;;;;1.95;100.00;93905.31;2106979;28;20468;-83
2022/01/30 03:34:34;;;;;;;0.68;0.45;;;;;;;2.04;100.00;93902.50;2106776;28;20020;-82
2022/01/30 03:35:35;;;;;;;0.65;0.60;;;;;;;2.05;100.00;93901.41;2082072;28;20149;-82
2022/01/30 03:36:37;;;;;;;0.60;0.50;;;;;;;1.91;100.00;93901.84;2099303;28;20024;-83
2022/01/30 03:37:38;;;;;;;0.40;0.40;;;;;;;1.78;100.00;93906.44;2107000;28;20074;-82
2022/01/30 03:38:39;;;;;;;0.40;0.40;;;;;;;1.69;100.00;93898.69;2098542;28;20028;-83
2022/01/30 03:39:40;;;;;;;1.70;0.50;;;;;;;1.93;100.00;93903.03;2106769;28;20020;-83
2022/01/30 03:40:43;;;;;;;0.73;0.73;;;;;;;1.87;100.00;93907.03;2114119;28;20027;-82
2022/01/30 03:41:44;;;;;;;0.40;0.40;;;;;;;1.97;100.00;93906.50;2106960;28;20035;-83
2022/01/30 03:42:45;;;;;;;0.55;0.55;;;;;;;2.14;100.00;93897.47;2106860;28;20020;-83
2022/01/30 03:43:46;;;;;;;1.65;0.60;;;;;;;2.01;100.00;93909.22;2106836;28;20032;-83
2022/01/30 03:44:47;;;;;;;0.60;0.50;;;;;;;2.07;100.00;93905.22;2106820;28;20020;-83
2022/01/30 03:45:48;;;;;;;0.50;0.50;;;;;;;1.90;100.00;93908.97;2106798;28;20056;-83
2022/01/30 03:46:57;;;;;;;0.52;0.40;;;;;;;1.85;100.00;93911.13;2098513;28;20024;-84
2022/01/30 03:47:58;;;;;;;1.50;0.50;;;;;;;1.81;100.00;93905.00;2100531;28;20036;-82
2022/01/30 03:48:59;;;;;;;0.40;0.40;;;;;;;2.07;100.00;93904.47;2106853;28;20127;-83
2022/01/30 03:50:00;;;;;;;0.63;0.50;;;;;;;2.10;100.00;93901.13;2106696;28;20034;-83
2022/01/30 03:51:01;;;;;;;1.65;0.50;;;;;;;2.37;100.00;93904.75;2098451;28;20058;-83
2022/01/30 03:52:03;;;;;;;0.95;0.47;;;;;;;2.30;100.00;93909.88;2106634;28;20092;-83
2022/01/30 03:53:04;;;;;;;0.98;0.50;;;;;;;2.20;100.00;93905.91;2115452;28;20044;-82
2022/01/30 03:54:05;;;;;;;1.85;0.40;;;;;;;2.08;100.00;93913.91;2106829;28;20020;-83
2022/01/30 03:55:06;;;;;;;0.50;0.50;;;;;;;2.14;100.00;93908.00;2098484;28;20036;-83
2022/01/30 03:56:08;;;;;;;0.75;0.40;;;;;;;2.14;100.00;93910.66;2098594;28;20350;-82
2022/01/30 03:57:09;;;;;;;0.75;0.38;;;;;;;2.01;100.00;93906.59;2097200;28;20120;-83
2022/01/30 03:58:10;;;;;;;0.40;0.40;;;;;;;1.95;100.00;93911.34;2081807;28;20022;-84
2022/01/30 03:59:11;;;;;;;0.35;0.35;;;;;;;2.20;100.00;93909.31;2090013;28;20086;-83
2022/01/30 04:00:13;;;;;;;1.95;0.40;;;;;;;2.33;100.00;93909.97;2098436;28;20024;-83
2022/01/30 04:01:14;;;;;;;0.40;0.40;;;;;;;2.34;100.00;93900.16;2118021;27;20121;-83
2022/01/30 04:02:15;;;;;;;0.60;0.50;;;;;;;2.37;100.00;93902.91;2098313;28;20025;-83
2022/01/30 04:03:16;;;;;;;0.50;0.50;;;;;;;2.23;100.00;93900.69;2106725;28;20043;-82
2022/01/30 04:04:17;;;;;;;1.42;0.30;;;;;;;2.21;100.00;93915.34;2106768;28;20453;-83
2022/01/30 04:05:18;;;;;;;0.43;0.43;;;;;;;2.20;100.00;93898.00;2115030;28;20019;-83
2022/01/30 04:06:19;;;;;;;1.95;0.93;;;;;;;2.38;100.00;93896.50;2106721;28;20084;-82
2022/01/30 04:07:20;;;;;;;1.08;0.38;;;;;;;2.25;100.00;93900.34;2098171;28;20035;-83
2022/01/30 04:08:22;;;;;;;0.40;0.40;;;;;;;2.23;100.00;93902.56;2104187;28;20051;-83
2022/01/30 04:09:24;;;;;;;1.02;0.60;;;;;;;2.21;100.00;93908.19;2100867;28;20069;-82
2022/01/30 04:10:25;;;;;;;0.90;0.90;;;;;;;2.15;100.00;93900.88;2098254;28;20040;-83
2022/01/30 04:11:28;;;;;;;0.40;0.40;;;;;;;2.00;100.00;93902.41;2115248;28;20350;-83
2022/01/30 04:12:29;;;;;;;0.40;0.40;;;;;;;1.99;100.00;93906.94;2106779;28;20016;-84
2022/01/30 04:13:30;;;;;;;3.60;0.60;;;;;;;2.32;100.00;93913.69;2102413;28;20069;-83
2022/01/30 04:14:32;;;;;;;1.02;0.52;;;;;;;2.46;100.00;93918.53;2106573;28;20111;-84
2022/01/30 04:15:40;;;;;;;1.85;0.65;;;;;;;2.27;100.00;93920.00;2106715;28;20024;-84
2022/01/30 04:16:48;;;;;;;0.52;0.50;;;;;;;2.43;100.00;93925.25;2115912;27;20047;-83
2022/01/30 04:17:56;;;;;;;0.55;0.50;;;;;;;2.37;100.00;93921.34;2107484;28;20027;-82
2022/01/30 04:18:57;;;;;;;1.40;0.50;;;;;;;2.17;100.00;93920.53;2107813;28;20020;-83
2022/01/30 04:19:58;;;;;;;0.50;0.50;;;;;;;2.19;100.00;93925.44;2094615;28;20399;-84
2022/01/30 04:21:00;;;;;;;0.68;0.60;;;;;;;2.19;100.00;93925.44;2106005;28;20111;-83
2022/01/30 04:22:01;;;;;;;0.57;0.57;;;;;;;2.42;100.00;93921.09;2106488;28;20134;-83
2022/01/30 04:23:02;;;;;;;1.48;0.57;;;;;;;2.30;100.00;93923.84;2115186;28;20031;-84
2022/01/30 04:24:04;;;;;;;1.85;0.77;;;;;;;2.22;100.00;93925.53;2089964;28;20060;-82
2022/01/30 04:25:05;;;;;;;0.45;0.40;;;;;;;2.38;100.00;93928.16;2081788;28;20021;-83
2022/01/30 04:26:06;;;;;;;0.50;0.50;;;;;;;2.17;100.00;93922.41;2081788;28;20037;-83
2022/01/30 04:27:07;;;;;;;0.50;0.50;;;;;;;2.05;100.00;93917.22;2093560;28;20128;-82
2022/01/30 04:28:09;;;;;;;1.40;0.60;;;;;;;2.42;100.00;93915.81;2098084;28;20036;-83
2022/01/30 04:29:11;;;;;;;0.82;0.60;;;;;;;2.51;100.00;93919.03;2089917;28;20017;-83
2022/01/30 04:30:12;;;;;;;0.68;0.50;;;;;;;2.37;100.00;93915.28;2089635;28;20056;-84
2022/01/30 04:31:14;;;;;;;0.73;0.45;;;;;;;2.39;100.00;93924.41;2098006;28;20029;-83
2022/01/30 04:32:15;;;;;;;0.50;0.50;;;;;;;2.15;100.00;93919.31;2081460;28;20108;-83
2022/01/30 04:33:16;;;;;;;0.88;0.50;;;;;;;2.03;100.00;93930.75;2081333;28;20029;-84
2022/01/30 04:34:19;;;;;;;0.98;0.50;;;;;;;2.23;100.00;93923.66;2081233;28;20032;-84
2022/01/30 04:35:25;;;;;;;0.70;0.50;;;;;;;2.26;100.00;93925.63;2082007;28;20599;-83
2022/01/30 04:36:31;;;;;;;0.93;0.50;;;;;;;2.21;100.00;93931.16;2090532;28;20120;-83
2022/01/30 04:41:38;;;;;;;1.02;0.40;;;;;;;2.03;100.00;93935.25;2123132;27;20026;-84
2022/01/30 04:54:58;;;;;;;0.52;0.52;;;;;;;2.20;100.00;93942.81;2117203;27;20036;-84
2022/01/30 04:57:46;;;;;;;0.30;0.30;;;;;;;2.06;100.00;93937.97;2120331;27;20015;-83
2022/01/30 05:02:23;;;;;;;0.50;0.35;;;;;;;2.06;100.00;93953.00;2112766;27;20028;-84
2022/01/30 05:03:44;;;;;;;0.50;0.50;;;;;;;2.26;100.00;93944.84;2106139;28;20088;-84
2022/01/30 05:05:10;;;;;;;0.70;0.50;;;;;;;2.18;100.00;93937.88;2092263;28;20032;-83
2022/01/30 05:06:11;;;;;;;0.35;0.35;;;;;;;2.01;100.00;93952.16;2116047;27;20075;-82
2022/01/30 05:08:13;;;;;;;0.80;0.40;;;;;;;2.16;100.00;93937.47;2119975;27;20027;-83
2022/01/30 05:09:15;;;;;;;0.40;0.40;;;;;;;2.11;100.00;93948.28;2114496;28;20050;-85
2022/01/30 05:10:18;;;;;;;1.13;0.38;;;;;;;2.16;100.00;93949.88;2112520;28;20050;-83
2022/01/30 05:11:19;;;;;;;1.02;0.40;;;;;;;1.94;100.00;93951.25;2098157;28;20109;-84
2022/01/30 05:12:20;;;;;;;0.40;0.40;;;;;;;1.94;100.00;93946.75;2104330;28;20028;-83
2022/01/30 05:13:25;;;;;;;0.30;0.30;;;;;;;1.96;100.00;93949.03;2114505;28;20503;-84
2022/01/30 05:14:33;;;;;;;0.40;0.40;;;;;;;2.09;100.00;93950.47;2114513;28;20506;-83
2022/01/30 05:15:34;;;;;;;0.40;0.38;;;;;;;2.06;100.00;93945.09;2099812;28;20064;-84
2022/01/30 05:16:37;;;;;;;1.20;0.32;;;;;;;2.16;100.00;93941.97;2106098;28;20024;-82
2022/01/30 05:17:39;;;;;;;0.30;0.30;;;;;;;2.14;100.00;93939.66;2106221;28;20024;-83
2022/01/30 05:18:40;;;;;;;0.40;0.30;;;;;;;2.03;100.00;93943.16;2092727;28;20498;-83
2022/01/30 05:19:41;;;;;;;0.43;0.35;;;;;;;2.05;100.00;93938.31;2094516;28;20078;-83
2022/01/30 05:20:42;;;;;;;0.57;0.40;;;;;;;1.87;100.00;93943.91;2097793;28;20012;-83
2022/01/30 05:21:43;;;;;;;0.30;0.30;;;;;;;1.89;100.00;93933.81;2097607;28;20031;-82
2022/01/30 05:22:45;;;;;;;0.57;0.45;;;;;;;2.13;100.00;93934.75;2106110;28;20122;-83
2022/01/30 05:23:46;;;;;;;0.40;0.40;;;;;;;1.95;100.00;93945.63;2099987;28;20021;-82
2022/01/30 05:24:47;;;;;;;1.27;0.40;;;;;;;1.95;100.00;93948.25;2097685;28;20095;-83
2022/01/30 05:25:51;;;;;;;0.40;0.40;;;;;;;1.88;100.00;93953.34;2097494;28;20055;-83
2022/01/30 05:26:52;;;;;;;0.30;0.30;;;;;;;1.82;100.00;93957.34;2112408;28;20027;-85
2022/01/30 05:27:53;;;;;;;0.75;0.30;;;;;;;1.94;100.00;93954.66;2090616;28;20067;-83
2022/01/30 05:28:54;;;;;;;0.30;0.30;;;;;;;1.75;100.00;93955.28;2081159;28;20100;-83
2022/01/30 05:29:56;;;;;;;0.30;0.30;;;;;;;1.85;100.00;93958.56;2081029;28;20383;-83
2022/01/30 05:31:03;;;;;;;0.32;0.30;;;;;;;1.79;100.00;93959.91;2089390;28;20029;-83
2022/01/30 05:32:05;;;;;;;0.25;0.25;;;;;;;1.81;100.00;93953.19;2098378;28;20493;-83
2022/01/30 05:33:06;;;;;;;0.38;0.38;;;;;;;1.84;100.00;93951.72;2097604;28;20110;-84
2022/01/30 05:34:08;;;;;;;0.30;0.30;;;;;;;2.03;100.00;93959.00;2089111;28;20211;-83
2022/01/30 05:35:09;;;;;;;0.30;0.30;;;;;;;2.06;100.00;93963.56;2080982;28;20045;-83
2022/01/30 05:36:11;;;;;;;0.20;0.20;;;;;;;2.27;100.00;93964.06;2089149;28;20079;-82
2022/01/30 05:37:16;;;;;;;0.43;0.43;;;;;;;2.18;100.00;93958.97;2080933;28;20018;-83
2022/01/30 05:38:18;;;;;;;0.30;0.30;;;;;;;2.08;100.00;93971.91;2090704;28;20036;-83
2022/01/30 05:39:19;;;;;;;0.30;0.30;;;;;;;1.95;100.00;93968.59;2097437;28;20069;-84
2022/01/30 05:40:21;;;;;;;0.85;0.25;;;;;;;1.96;100.00;93960.34;2101310;28;20020;-83
2022/01/30 05:41:22;;;;;;;0.60;0.30;;;;;;;1.91;100.00;93965.88;2091993;28;20024;-84
2022/01/30 05:42:26;;;;;;;0.30;0.30;;;;;;;1.93;100.00;93965.50;2089305;28;20017;-84
2022/01/30 05:43:30;;;;;;;0.30;0.30;;;;;;;1.75;100.00;93959.81;2089952;28;20185;-84
2022/01/30 05:44:44;;;;;;;0.30;0.30;;;;;;;1.81;100.00;93962.97;2090193;28;20086;-83